createdAt,value
2023-05-19T00:02:44.153Z,2.13
2023-05-19T00:05:46.746Z,2.30
2023-05-19T00:08:49.867Z,2.53
2023-05-19T00:11:52.549Z,2.70
2023-05-19T00:14:55.273Z,2.27
2023-05-19T00:17:58.316Z,2.58
2023-05-19T00:21:01.235Z,2.50
2023-05-19T00:24:04.011Z,3.10
2023-05-19T00:27:06.358Z,2.92
2023-05-19T00:30:09.203Z,2.60
2023-05-19T00:33:11.607Z,3.10
2023-05-19T00:36:14.023Z,2.80
2023-05-19T00:39:16.474Z,2.70
2023-05-19T00:42:18.823Z,2.67
2023-05-19T00:45:21.224Z,2.80
2023-05-19T00:48:25.881Z,2.85
2023-05-19T00:51:29.742Z,3.33
2023-05-19T00:54:34.131Z,2.72
2023-05-19T00:57:37.856Z,3.08
2023-05-19T01:00:40.693Z,3.50
2023-05-19T01:03:44.074Z,4.90
2023-05-19T01:06:56.192Z,6.00
2023-05-19T01:09:58.678Z,4.45
2023-05-19T01:13:02.364Z,4.38
2023-05-19T01:16:09.112Z,4.00
2023-05-19T01:19:12.429Z,4.53
2023-05-19T01:22:28.118Z,3.92
2023-05-19T01:25:58.376Z,3.50
2023-05-19T01:29:42.139Z,3.28
2023-05-19T01:32:45.356Z,3.50
2023-05-19T01:35:48.757Z,4.50
2023-05-19T01:38:52.936Z,3.67
2023-05-19T01:41:55.377Z,3.95
2023-05-19T01:44:58.079Z,4.00
2023-05-19T01:48:04.199Z,4.27
2023-05-19T01:51:06.594Z,4.13
2023-05-19T01:54:08.903Z,4.05
2023-05-19T01:57:26.340Z,3.70
2023-05-19T02:00:57.478Z,3.72
2023-05-19T02:04:15.103Z,4.23
2023-05-19T02:07:26.057Z,3.75
2023-05-19T02:10:32.283Z,3.42
2023-05-19T02:13:37.990Z,3.78
2023-05-19T02:16:44.679Z,3.80
2023-05-19T02:19:47.355Z,3.47
2023-05-19T02:22:50.548Z,3.42
2023-05-19T02:25:53.337Z,3.72
2023-05-19T02:28:55.774Z,3.55
2023-05-19T02:32:01.540Z,3.97
2023-05-19T02:35:04.213Z,4.30
2023-05-19T02:38:09.941Z,4.32
2023-05-19T02:41:12.226Z,4.22
2023-05-19T02:44:14.769Z,4.80
2023-05-19T02:47:17.198Z,4.60
2023-05-19T02:50:20.138Z,3.83
2023-05-19T02:53:22.458Z,4.78
2023-05-19T02:56:24.803Z,4.72
2023-05-19T02:59:27.353Z,4.90
2023-05-19T03:02:29.802Z,4.32
2023-05-19T03:05:34.834Z,4.23
2023-05-19T03:08:37.697Z,4.97
2023-05-19T03:11:41.084Z,4.72
2023-05-19T03:14:44.347Z,4.72
2023-05-19T03:17:46.782Z,4.50
2023-05-19T03:20:49.146Z,4.57
2023-05-19T03:23:51.438Z,4.70
2023-05-19T03:26:54.237Z,4.85
2023-05-19T03:29:56.645Z,3.25
2023-05-19T03:33:01.755Z,3.92
2023-05-19T03:36:04.652Z,4.00
2023-05-19T03:39:11.283Z,3.58
2023-05-19T03:42:13.713Z,4.05
2023-05-19T03:45:16.193Z,4.00
2023-05-19T03:48:21.596Z,3.90
2023-05-19T03:51:44.396Z,3.80
2023-05-19T03:55:07.922Z,3.25
2023-05-19T03:58:10.845Z,4.10
2023-05-19T04:01:13.209Z,4.28
2023-05-19T04:04:16.758Z,3.72
2023-05-19T04:07:20.809Z,4.60
2023-05-19T04:10:23.151Z,4.28
2023-05-19T04:13:25.570Z,4.50
2023-05-19T04:16:27.905Z,4.90
2023-05-19T04:19:30.322Z,5.00
2023-05-19T04:22:32.962Z,4.60
2023-05-19T04:25:36.344Z,4.30
2023-05-19T04:28:41.889Z,5.07
2023-05-19T04:31:52.827Z,3.90
2023-05-19T04:34:55.350Z,4.30
2023-05-19T04:38:01.722Z,3.95
2023-05-19T04:41:10.754Z,3.73
2023-05-19T04:44:13.684Z,4.07
2023-05-19T04:47:17.966Z,4.18
2023-05-19T04:50:20.657Z,4.60
2023-05-19T04:53:22.908Z,4.65
2023-05-19T04:56:27.411Z,4.90
2023-05-19T04:59:30.036Z,4.50
2023-05-19T05:02:34.055Z,4.80
2023-05-19T05:05:36.480Z,4.72
2023-05-19T05:08:40.654Z,6.38
2023-05-19T05:11:43.642Z,6.60
2023-05-19T05:14:46.440Z,9.30
2023-05-19T05:17:49.053Z,11.25
2023-05-19T05:20:53.062Z,12.07
2023-05-19T05:23:56.183Z,11.57
2023-05-19T05:27:01.624Z,12.37
2023-05-19T05:30:05.921Z,12.50
2023-05-19T05:33:09.833Z,14.57
2023-05-19T05:36:14.847Z,15.20
2023-05-19T05:39:17.387Z,16.00
2023-05-19T05:42:20.993Z,15.17
2023-05-19T05:45:25.255Z,15.30
2023-05-19T05:48:29.161Z,15.50
2023-05-19T05:51:33.075Z,15.02
2023-05-19T05:54:36.291Z,14.90
2023-05-19T05:57:41.922Z,14.33
2023-05-19T06:00:45.453Z,13.60
2023-05-19T06:03:47.948Z,14.30
2023-05-19T06:07:01.385Z,14.07
2023-05-19T06:10:09.156Z,13.48
2023-05-19T06:13:11.671Z,12.87
2023-05-19T06:16:15.917Z,12.73
2023-05-19T06:19:21.745Z,11.93
2023-05-19T06:22:24.296Z,11.77
2023-05-19T06:25:26.775Z,10.77
2023-05-19T06:28:29.195Z,10.67
2023-05-19T06:31:33.491Z,11.20
2023-05-19T06:34:44.229Z,11.15
2023-05-19T06:37:53.198Z,10.60
2023-05-19T06:40:56.000Z,10.68
2023-05-19T06:43:58.456Z,10.50
2023-05-19T06:47:00.859Z,11.27
2023-05-19T06:50:03.455Z,10.90
2023-05-19T06:53:09.463Z,10.98
2023-05-19T06:56:12.195Z,10.77
2023-05-19T06:59:16.217Z,10.90
2023-05-19T07:02:20.081Z,10.97
2023-05-19T07:05:23.251Z,9.75
2023-05-19T07:08:30.342Z,9.52
2023-05-19T07:11:35.966Z,8.60
2023-05-19T07:14:39.005Z,9.50
2023-05-19T07:17:42.121Z,8.70
2023-05-19T07:20:44.439Z,8.68
2023-05-19T07:23:46.845Z,11.88
2023-05-19T07:26:49.221Z,8.20
2023-05-19T07:29:51.473Z,7.47
2023-05-19T07:32:53.962Z,7.33
2023-05-19T07:35:56.441Z,6.75
2023-05-19T07:38:58.775Z,7.50
2023-05-19T07:42:01.339Z,7.35
2023-05-19T07:45:03.982Z,7.73
2023-05-19T07:48:06.418Z,8.97
2023-05-19T07:51:10.333Z,8.35
2023-05-19T07:54:12.652Z,7.45
2023-05-19T07:57:14.961Z,7.22
2023-05-19T08:00:17.851Z,7.77
2023-05-19T08:03:21.144Z,7.30
2023-05-19T08:06:25.303Z,7.10
2023-05-19T08:09:27.734Z,7.00
2023-05-19T08:12:30.039Z,5.15
2023-05-19T08:15:32.823Z,5.37
2023-05-19T08:18:35.171Z,6.50
2023-05-19T08:21:37.533Z,6.18
2023-05-19T08:24:42.518Z,5.80
2023-05-19T08:27:44.896Z,5.35
2023-05-19T08:30:47.177Z,5.60
2023-05-19T08:33:49.438Z,5.13
2023-05-19T08:36:51.795Z,5.20
2023-05-19T08:39:54.067Z,5.80
2023-05-19T08:42:56.348Z,5.97
2023-05-19T08:45:59.722Z,18.33
2023-05-19T08:49:07.753Z,5.67
2023-05-19T08:52:17.437Z,5.30
2023-05-19T08:55:39.522Z,4.82
2023-05-19T08:58:44.072Z,4.60
2023-05-19T09:01:46.964Z,4.73
2023-05-19T09:04:49.703Z,4.07
2023-05-19T09:07:52.045Z,3.80
2023-05-19T09:10:54.396Z,4.78
2023-05-19T09:13:57.165Z,4.65
2023-05-19T09:16:59.732Z,4.67
2023-05-19T09:20:10.984Z,4.90
2023-05-19T09:41:47.854Z,4.10
2023-05-19T09:44:51.790Z,3.95
2023-05-19T09:48:32.300Z,3.60
2023-05-19T09:51:37.284Z,4.00
2023-05-19T09:54:40.469Z,3.73
2023-05-19T09:57:45.421Z,3.10
2023-05-19T10:00:47.935Z,2.92
2023-05-19T10:03:50.663Z,3.08
2023-05-19T10:06:59.795Z,3.10
2023-05-19T10:10:03.332Z,2.60
2023-05-19T10:13:06.241Z,3.00
2023-05-19T10:16:10.035Z,3.00
2023-05-19T10:19:13.156Z,3.05
2023-05-19T10:22:15.657Z,2.80
2023-05-19T10:25:20.109Z,3.00
2023-05-19T10:28:25.664Z,2.80
2023-05-19T10:31:28.255Z,2.80
2023-05-19T10:34:57.325Z,3.28
2023-05-19T10:38:17.882Z,3.33
2023-05-19T10:41:29.398Z,2.93
2023-05-19T10:44:44.248Z,2.83
2023-05-19T10:47:46.709Z,3.25
2023-05-19T10:50:49.885Z,3.13
2023-05-19T10:53:54.170Z,2.92
2023-05-19T10:56:56.938Z,3.50
2023-05-19T11:00:00.956Z,2.40
2023-05-19T11:03:17.804Z,2.75
2023-05-19T11:06:26.835Z,2.90
2023-05-19T11:09:39.735Z,2.42
2023-05-19T11:12:45.157Z,2.83
2023-05-19T11:15:47.492Z,2.57
2023-05-19T11:18:50.602Z,2.60
2023-05-19T11:21:55.275Z,2.58
2023-05-19T11:24:57.786Z,2.08
2023-05-19T11:28:00.336Z,2.80
2023-05-19T11:31:02.808Z,2.60
2023-05-19T11:34:08.054Z,2.85
2023-05-19T11:37:11.635Z,2.65
2023-05-19T11:40:15.809Z,4.15
2023-05-19T11:43:18.383Z,4.60
2023-05-19T11:46:21.021Z,2.40
2023-05-19T11:49:23.490Z,2.90
2023-05-19T11:52:27.583Z,3.05
2023-05-19T11:55:30.147Z,2.33
2023-05-19T11:58:32.453Z,2.50
2023-05-19T12:01:35.625Z,2.07
2023-05-19T12:04:38.619Z,2.40
2023-05-19T12:07:41.115Z,2.92
2023-05-19T12:10:43.494Z,3.08
2023-05-19T12:13:46.266Z,2.17
2023-05-19T12:16:48.700Z,2.07
2023-05-19T12:19:51.378Z,2.50
2023-05-19T12:22:56.316Z,2.35
2023-05-19T12:26:01.857Z,2.35
2023-05-19T12:29:07.327Z,2.63
2023-05-19T12:32:10.093Z,2.20
2023-05-19T12:35:12.537Z,2.22
2023-05-19T12:38:14.996Z,2.20
2023-05-19T12:41:17.561Z,2.28
2023-05-19T12:44:19.917Z,2.50
2023-05-19T12:47:22.913Z,2.60
2023-05-19T12:50:31.285Z,2.15
2023-05-19T12:53:34.776Z,2.45
2023-05-19T12:56:38.100Z,2.30
2023-05-19T12:59:42.931Z,2.40
2023-05-19T13:03:19.128Z,1.97
2023-05-19T13:06:22.219Z,2.50
2023-05-19T13:09:24.530Z,2.40
2023-05-19T13:12:27.242Z,1.88
2023-05-19T13:15:34.343Z,2.33
2023-05-19T13:18:37.719Z,1.80
2023-05-19T13:21:40.232Z,1.90
2023-05-19T13:24:42.690Z,2.10
2023-05-19T13:27:46.160Z,2.10
2023-05-19T13:30:49.642Z,2.07
2023-05-19T13:33:52.067Z,3.50
2023-05-19T13:36:54.610Z,2.65
2023-05-19T13:39:59.858Z,2.50
2023-05-19T13:43:03.324Z,2.10
2023-05-19T13:46:06.060Z,2.00
2023-05-19T13:49:08.412Z,2.10
2023-05-19T13:52:11.643Z,2.10
2023-05-19T13:55:14.045Z,1.80
2023-05-19T13:58:18.093Z,2.47
2023-05-19T14:01:21.236Z,2.40
2023-05-19T14:04:26.470Z,2.90
2023-05-19T14:07:31.831Z,2.45
2023-05-19T14:10:34.498Z,2.40
2023-05-19T14:13:40.965Z,1.73
2023-05-19T14:16:45.052Z,1.90
2023-05-19T14:19:47.394Z,1.83
2023-05-19T14:22:50.001Z,1.95
2023-05-19T14:25:52.397Z,2.58
2023-05-19T14:28:56.963Z,1.92
2023-05-19T14:32:27.321Z,2.23
2023-05-19T14:35:34.183Z,2.10
2023-05-19T14:38:36.793Z,2.45
2023-05-19T14:41:39.157Z,2.03
2023-05-19T14:44:44.162Z,2.03
2023-05-19T14:51:22.262Z,2.17
2023-05-19T14:54:24.791Z,2.15
2023-05-19T14:57:27.180Z,2.00
2023-05-19T15:00:29.962Z,1.88
2023-05-19T15:03:32.365Z,2.00
2023-05-19T15:06:34.889Z,2.20
2023-05-19T15:09:37.315Z,2.40
2023-05-19T15:12:39.741Z,2.78
2023-05-19T15:15:42.083Z,1.88
2023-05-19T15:18:44.584Z,2.63
2023-05-19T15:21:47.023Z,2.20
2023-05-19T15:24:49.340Z,2.08
2023-05-19T15:27:52.266Z,2.30
2023-05-19T15:30:54.789Z,2.30
2023-05-19T15:33:57.240Z,2.13
2023-05-19T15:36:59.541Z,2.53
2023-05-19T15:40:01.809Z,2.10
2023-05-19T15:43:04.251Z,2.40
2023-05-19T15:46:06.630Z,2.60
2023-05-19T15:49:09.258Z,2.43
2023-05-19T15:52:15.255Z,2.10
2023-05-19T15:55:17.706Z,2.38
2023-05-19T15:58:20.112Z,2.30
2023-05-19T16:01:22.626Z,2.33
2023-05-19T16:04:25.018Z,2.17
2023-05-19T16:07:27.418Z,2.10
2023-05-19T16:10:29.817Z,2.47
2023-05-19T16:13:33.689Z,2.13
2023-05-19T16:16:36.173Z,2.08
2023-05-19T16:19:38.561Z,2.40
2023-05-19T16:22:41.151Z,2.00
2023-05-19T16:25:43.415Z,2.42
2023-05-19T16:28:45.695Z,1.90
2023-05-19T16:31:48.105Z,2.40
2023-05-19T16:34:50.674Z,2.30
2023-05-19T16:37:53.174Z,2.60
2023-05-19T16:40:55.530Z,2.70
2023-05-19T16:43:57.940Z,2.15
2023-05-19T16:47:00.416Z,2.05
2023-05-19T16:50:03.255Z,2.60
2023-05-19T16:53:05.831Z,2.60
2023-05-19T16:56:08.604Z,3.42
2023-05-19T16:59:11.097Z,2.40
2023-05-19T17:02:13.570Z,2.33
2023-05-19T17:05:16.186Z,2.50
2023-05-19T17:08:18.566Z,2.93
2023-05-19T17:11:21.880Z,2.40
2023-05-19T17:14:24.170Z,2.50
2023-05-19T17:17:26.582Z,3.13
2023-05-19T17:20:28.962Z,2.53
2023-05-19T17:23:32.389Z,2.77
2023-05-19T17:26:34.834Z,2.40
2023-05-19T17:29:37.276Z,2.45
2023-05-19T17:32:39.891Z,3.05
2023-05-19T17:35:42.368Z,2.47
2023-05-19T17:38:44.749Z,2.90
2023-05-19T17:41:47.099Z,2.97
2023-05-19T17:44:49.656Z,2.60
2023-05-19T17:47:52.091Z,2.75
2023-05-19T17:50:54.771Z,3.17
2023-05-19T17:53:57.376Z,2.80
2023-05-19T17:57:02.232Z,2.60
2023-05-19T18:00:05.782Z,2.67
2023-05-19T18:03:08.461Z,2.70
2023-05-19T18:06:11.862Z,2.63
2023-05-19T18:09:14.451Z,2.83
2023-05-19T18:12:17.696Z,2.60
2023-05-19T18:15:20.107Z,3.10
2023-05-19T18:18:22.432Z,3.58
2023-05-19T18:21:25.271Z,3.40
2023-05-19T18:24:27.631Z,3.23
2023-05-19T18:27:31.427Z,3.30
2023-05-19T18:30:33.856Z,3.40
2023-05-19T18:33:36.645Z,3.17
2023-05-19T18:36:39.012Z,3.43
2023-05-19T18:39:41.436Z,3.30
2023-05-19T18:42:44.187Z,3.30
2023-05-19T18:45:49.632Z,4.10
2023-05-19T18:48:52.011Z,3.92
2023-05-19T18:51:54.295Z,4.30
2023-05-19T18:54:56.851Z,4.10
2023-05-19T18:57:59.209Z,4.03
2023-05-19T19:01:01.839Z,3.80
2023-05-19T19:04:04.452Z,3.80
2023-05-19T19:07:07.118Z,3.97
2023-05-19T19:10:11.551Z,4.00
2023-05-19T19:13:13.872Z,3.55
2023-05-19T19:16:16.320Z,4.03
2023-05-19T19:19:18.744Z,4.43
2023-05-19T19:22:21.233Z,4.27
2023-05-19T19:25:23.847Z,4.30
2023-05-19T19:28:26.611Z,3.95
2023-05-19T19:31:28.996Z,3.97
2023-05-19T19:34:31.493Z,4.38
2023-05-19T19:37:34.062Z,4.13
2023-05-19T19:40:36.602Z,4.63
2023-05-19T19:43:39.050Z,4.45
2023-05-19T19:46:44.149Z,4.30
2023-05-19T19:49:46.523Z,4.38
2023-05-19T19:52:48.947Z,5.47
2023-05-19T19:56:01.430Z,4.57
2023-05-19T19:59:03.862Z,4.70
2023-05-19T20:02:06.193Z,4.50
2023-05-19T20:05:08.969Z,4.78
2023-05-19T20:08:12.214Z,4.70
2023-05-19T20:11:15.509Z,5.10
2023-05-19T20:14:20.655Z,4.78
2023-05-19T20:17:23.008Z,5.07
2023-05-19T20:20:25.688Z,6.00
2023-05-19T20:23:28.144Z,5.77
2023-05-19T20:26:30.419Z,6.03
2023-05-19T20:29:32.848Z,6.88
2023-05-19T20:32:35.981Z,5.72
2023-05-19T20:35:38.420Z,5.35
2023-05-19T20:38:40.924Z,5.57
2023-05-19T20:41:43.177Z,5.60
2023-05-19T20:44:45.574Z,5.85
2023-05-19T20:47:50.716Z,6.32
2023-05-19T20:50:54.110Z,5.75
2023-05-19T20:53:56.452Z,6.60
2023-05-19T20:56:58.737Z,6.53
2023-05-19T21:00:01.088Z,6.30
2023-05-19T21:03:04.218Z,6.88
2023-05-19T21:06:06.720Z,6.18
2023-05-19T21:09:09.584Z,6.50
2023-05-19T21:12:12.751Z,6.63
2023-05-19T21:15:15.111Z,6.55
2023-05-19T21:18:17.422Z,6.63
2023-05-19T21:21:19.721Z,6.97
2023-05-19T21:24:21.961Z,6.50
2023-05-19T21:27:24.333Z,6.77
2023-05-19T21:30:26.764Z,6.85
2023-05-19T21:33:29.025Z,6.80
2023-05-19T21:36:31.869Z,6.85
2023-05-19T21:39:34.849Z,6.17
2023-05-19T21:42:37.187Z,6.70
2023-05-19T21:45:39.488Z,6.32
2023-05-19T21:48:41.794Z,6.47
2023-05-19T21:51:44.055Z,6.55
2023-05-19T21:54:46.311Z,6.67
2023-05-19T21:57:48.725Z,6.60
2023-05-19T22:00:54.490Z,6.38
2023-05-19T22:03:56.854Z,7.03
2023-05-19T22:06:59.440Z,6.60
2023-05-19T22:10:02.000Z,6.13
2023-05-19T22:13:04.309Z,7.03
2023-05-19T22:16:07.797Z,6.18
2023-05-19T22:19:11.550Z,6.35
2023-05-19T22:22:14.684Z,6.13
2023-05-19T22:25:17.301Z,6.50
2023-05-19T22:28:19.667Z,6.63
2023-05-19T22:31:22.011Z,6.80
2023-05-19T22:34:24.774Z,6.28
2023-05-19T22:37:29.030Z,6.20
2023-05-19T22:40:32.655Z,5.57
2023-05-19T22:43:35.249Z,5.37
2023-05-19T22:46:37.689Z,5.97
2023-05-19T22:49:41.285Z,5.72
2023-05-19T22:52:43.596Z,5.85
2023-05-19T22:55:45.941Z,6.13
2023-05-19T22:58:48.297Z,6.57
2023-05-19T23:01:50.622Z,6.50
2023-05-19T23:04:52.904Z,6.45
2023-05-19T23:07:55.308Z,7.13
2023-05-19T23:11:00.892Z,6.43
2023-05-19T23:14:03.151Z,7.03
2023-05-19T23:17:05.754Z,7.70
2023-05-19T23:20:08.441Z,6.93
2023-05-19T23:23:10.754Z,6.50
2023-05-19T23:26:15.947Z,6.93
2023-05-19T23:29:18.331Z,6.90
2023-05-19T23:32:20.660Z,6.38
2023-05-19T23:35:22.951Z,6.15
2023-05-19T23:38:25.806Z,6.35
2023-05-19T23:41:28.100Z,5.67
2023-05-19T23:44:30.382Z,6.20
2023-05-19T23:47:32.703Z,6.50
2023-05-19T23:50:35.138Z,5.90
2023-05-19T23:53:37.486Z,5.70
2023-05-19T23:56:39.786Z,5.50
2023-05-19T23:59:42.274Z,6.60
